createdAt,value
2023-05-06T00:02:05.935Z,63.03
2023-05-06T00:06:07.334Z,63.01
2023-05-06T00:10:09.293Z,62.76
2023-05-06T00:14:12.445Z,62.80
2023-05-06T00:18:12.679Z,62.05
2023-05-06T00:22:13.057Z,62.72
2023-05-06T00:26:13.656Z,62.28
2023-05-06T00:30:17.296Z,62.59
2023-05-06T00:34:17.542Z,62.88
2023-05-06T00:38:19.760Z,62.79
2023-05-06T00:42:22.756Z,62.30
2023-05-06T00:46:25.795Z,62.05
2023-05-06T00:50:28.468Z,62.15
2023-05-06T00:54:30.045Z,62.73
2023-05-06T00:58:30.827Z,63.03
2023-05-06T01:02:45.861Z,62.93
2023-05-06T01:06:59.188Z,63.33
2023-05-06T01:11:05.263Z,62.95
2023-05-06T01:15:11.933Z,62.07
2023-05-06T01:19:42.017Z,61.74
2023-05-06T01:24:01.097Z,61.23
2023-05-06T01:28:01.438Z,60.75
2023-05-06T01:32:15.309Z,61.28
2023-05-06T01:36:26.168Z,61.51
2023-05-06T01:40:31.746Z,61.81
2023-05-06T01:44:39.421Z,62.11
2023-05-06T01:48:41.955Z,62.63
2023-05-06T01:52:42.436Z,62.83
2023-05-06T01:56:45.472Z,62.33
2023-05-06T02:00:46.241Z,62.63
2023-05-06T02:04:47.020Z,61.90
2023-05-06T02:08:47.377Z,62.25
2023-05-06T02:12:54.848Z,62.17
2023-05-06T02:16:56.367Z,62.63
2023-05-06T02:20:56.670Z,62.88
2023-05-06T02:24:56.926Z,61.89
2023-05-06T02:29:00.646Z,62.20
2023-05-06T02:33:01.145Z,62.79
2023-05-06T02:37:01.655Z,62.67
2023-05-06T02:41:01.979Z,63.00
2023-05-06T02:45:05.239Z,63.11
2023-05-06T02:49:05.920Z,63.88
2023-05-06T02:53:06.114Z,63.29
2023-05-06T02:57:06.523Z,62.64
2023-05-06T03:01:09.521Z,62.83
2023-05-06T03:05:12.105Z,62.82
2023-05-06T03:09:12.688Z,63.92
2023-05-06T03:13:16.250Z,63.56
2023-05-06T03:17:19.457Z,64.83
2023-05-06T03:21:20.278Z,65.08
2023-05-06T03:25:22.737Z,64.10
2023-05-06T03:29:23.410Z,64.43
2023-05-06T03:33:27.326Z,64.91
2023-05-06T03:37:27.824Z,65.07
2023-05-06T03:41:30.327Z,63.86
2023-05-06T03:45:31.123Z,64.35
2023-05-06T03:49:36.528Z,64.81
2023-05-06T03:53:37.348Z,63.82
2023-05-06T03:57:38.495Z,64.66
2023-05-06T04:01:40.151Z,65.55
2023-05-06T04:05:43.396Z,66.38
2023-05-06T04:09:46.125Z,65.47
2023-05-06T04:13:46.531Z,65.58
2023-05-06T04:17:50.644Z,65.98
2023-05-06T04:21:53.977Z,65.15
2023-05-06T04:25:54.977Z,65.54
2023-05-06T04:29:57.855Z,65.74
2023-05-06T04:33:59.322Z,66.14
2023-05-06T04:38:02.527Z,64.47
2023-05-06T04:42:04.412Z,64.01
2023-05-06T04:46:12.154Z,62.83
2023-05-06T04:50:15.537Z,63.07
2023-05-06T04:54:18.743Z,63.54
2023-05-06T04:58:19.886Z,61.66
2023-05-06T05:02:21.405Z,61.47
2023-05-06T05:06:21.790Z,62.48
2023-05-06T05:10:25.104Z,60.88
2023-05-06T05:14:25.868Z,61.34
2023-05-06T05:18:26.391Z,62.00
2023-05-06T05:22:30.905Z,62.27
2023-05-06T05:26:33.845Z,63.33
2023-05-06T05:30:34.224Z,62.70
2023-05-06T05:34:34.975Z,61.30
2023-05-06T05:38:35.819Z,61.34
2023-05-06T05:42:39.868Z,61.07
2023-05-06T05:46:46.867Z,59.93
2023-05-06T05:50:50.888Z,59.89
2023-05-06T05:54:51.942Z,58.52
2023-05-06T05:58:56.118Z,59.02
2023-05-06T06:02:57.638Z,57.73
2023-05-06T06:07:02.119Z,57.08
2023-05-06T06:11:05.998Z,58.81
2023-05-06T06:15:15.080Z,57.74
2023-05-06T06:19:18.212Z,57.32
2023-05-06T06:23:19.219Z,56.20
2023-05-06T06:27:19.553Z,56.26
2023-05-06T06:31:22.796Z,56.54
2023-05-06T06:35:23.786Z,56.42
2023-05-06T06:39:24.816Z,55.49
2023-05-06T06:43:25.192Z,55.51
2023-05-06T06:47:36.578Z,55.65
2023-05-06T06:51:36.827Z,56.43
2023-05-06T06:55:37.830Z,55.83
2023-05-06T06:59:38.214Z,54.40
2023-05-06T07:03:41.153Z,51.49
2023-05-06T07:07:41.326Z,51.29
2023-05-06T07:11:41.557Z,52.53
2023-05-06T07:15:41.897Z,52.59
2023-05-06T07:19:44.840Z,54.00
2023-05-06T07:23:45.137Z,54.85
2023-05-06T07:27:45.438Z,53.50
2023-05-06T07:31:45.924Z,51.99
2023-05-06T07:35:51.826Z,49.54
2023-05-06T07:39:52.158Z,51.38
2023-05-06T07:43:52.515Z,51.83
2023-05-06T07:47:53.114Z,51.42
2023-05-06T07:51:58.422Z,50.60
2023-05-06T07:56:02.495Z,50.39
2023-05-06T08:00:04.527Z,48.53
2023-05-06T08:04:20.046Z,47.76
2023-05-06T08:08:30.485Z,45.52
2023-05-06T08:12:30.958Z,43.69
2023-05-06T08:16:35.849Z,43.72
2023-05-06T08:20:36.520Z,44.19
2023-05-06T08:24:43.801Z,43.90
2023-05-06T08:28:44.577Z,44.62
2023-05-06T08:32:50.956Z,41.17
2023-05-06T08:36:52.279Z,40.61
2023-05-06T08:41:14.948Z,39.93
2023-05-06T08:45:16.030Z,38.33
2023-05-06T08:49:16.515Z,39.17
2023-05-06T08:53:17.296Z,38.17
2023-05-06T08:57:20.951Z,38.40
2023-05-06T09:01:21.372Z,37.57
2023-05-06T09:05:21.914Z,36.58
2023-05-06T09:09:22.190Z,35.18
2023-05-06T09:13:24.960Z,37.84
2023-05-06T09:17:28.303Z,36.02
2023-05-06T09:21:36.319Z,35.50
2023-05-06T09:25:36.709Z,35.13
2023-05-06T09:29:39.527Z,35.03
2023-05-06T09:33:39.950Z,35.99
2023-05-06T09:37:40.206Z,35.22
2023-05-06T09:41:40.673Z,33.73
2023-05-06T09:45:45.151Z,34.08
2023-05-06T09:49:46.005Z,35.28
2023-05-06T09:53:48.281Z,35.58
2023-05-06T09:57:49.583Z,35.34
2023-05-06T10:01:53.945Z,34.98
2023-05-06T10:05:57.425Z,33.70
2023-05-06T10:10:01.285Z,35.61
2023-05-06T10:14:03.317Z,37.10
2023-05-06T10:18:10.371Z,36.94
2023-05-06T10:22:22.497Z,33.79
2023-05-06T10:26:25.735Z,33.75
2023-05-06T10:30:27.794Z,34.16
2023-05-06T10:34:38.556Z,34.02
2023-05-06T10:38:45.089Z,34.26
2023-05-06T10:42:45.588Z,32.22
2023-05-06T10:47:05.833Z,30.42
2023-05-06T10:51:28.764Z,31.49
2023-05-06T10:55:32.587Z,28.34
2023-05-06T10:59:32.983Z,26.27
2023-05-06T11:03:36.111Z,25.00
2023-05-06T11:07:39.461Z,25.47
2023-05-06T11:12:04.078Z,26.56
2023-05-06T11:16:07.881Z,28.75
2023-05-06T11:20:25.606Z,27.67
2023-05-06T11:24:31.127Z,27.54
2023-05-06T11:28:32.579Z,27.15
2023-05-06T11:32:33.338Z,27.36
2023-05-06T11:36:33.739Z,27.48
2023-05-06T11:40:36.821Z,26.20
2023-05-06T11:44:42.316Z,23.46
2023-05-06T11:48:42.630Z,22.33
2023-05-06T11:52:43.137Z,22.41
2023-05-06T11:56:56.408Z,22.03
2023-05-06T12:00:59.039Z,20.90
2023-05-06T12:05:00.100Z,22.39
2023-05-06T12:09:01.655Z,25.11
2023-05-06T12:13:05.167Z,26.90
2023-05-06T12:17:06.190Z,30.21
2023-05-06T12:21:07.604Z,30.08
2023-05-06T12:25:18.003Z,30.04
2023-05-06T12:29:21.386Z,30.28
2023-05-06T12:33:22.126Z,30.44
2023-05-06T12:37:32.029Z,29.70
2023-05-06T12:41:42.254Z,28.87
2023-05-06T12:45:46.564Z,28.98
2023-05-06T12:49:55.021Z,27.53
2023-05-06T12:53:55.442Z,27.08
2023-05-06T12:57:57.881Z,25.59
2023-05-06T13:02:01.354Z,26.10
2023-05-06T13:06:01.777Z,27.20
2023-05-06T13:10:03.360Z,27.02
2023-05-06T13:14:03.999Z,26.62
2023-05-06T13:18:07.969Z,27.15
2023-05-06T13:22:08.656Z,25.35
2023-05-06T13:26:08.994Z,25.83
2023-05-06T13:30:11.787Z,25.11
2023-05-06T13:34:15.054Z,27.02
2023-05-06T13:38:15.238Z,28.02
2023-05-06T13:42:15.676Z,26.80
2023-05-06T13:46:16.438Z,28.59
2023-05-06T13:50:19.659Z,28.87
2023-05-06T13:54:20.089Z,29.00
2023-05-06T13:58:20.393Z,28.10
2023-05-06T14:02:20.711Z,26.60
2023-05-06T14:06:23.653Z,24.48
2023-05-06T14:10:24.877Z,24.29
2023-05-06T14:14:25.162Z,25.19
2023-05-06T14:18:26.570Z,27.08
2023-05-06T14:22:30.900Z,27.12
2023-05-06T14:26:31.134Z,27.36
2023-05-06T14:30:32.793Z,27.13
2023-05-06T14:34:33.632Z,27.21
2023-05-06T14:38:36.558Z,27.00
2023-05-06T14:42:36.995Z,27.19
2023-05-06T14:46:37.196Z,25.99
2023-05-06T14:50:37.911Z,25.74
2023-05-06T14:54:42.794Z,26.17
2023-05-06T14:58:43.193Z,26.46
2023-05-06T15:02:43.565Z,26.63
2023-05-06T15:06:43.821Z,26.20
2023-05-06T15:10:46.788Z,27.06
2023-05-06T15:14:47.113Z,27.59
2023-05-06T15:18:47.993Z,27.54
2023-05-06T15:22:48.247Z,28.17
2023-05-06T15:26:51.132Z,28.53
2023-05-06T15:30:51.677Z,29.05
2023-05-06T15:34:51.853Z,28.93
2023-05-06T15:39:03.544Z,28.73
2023-05-06T15:43:08.633Z,29.02
2023-05-06T15:47:09.287Z,28.86
2023-05-06T15:51:09.880Z,27.57
2023-05-06T15:55:13.467Z,27.57
2023-05-06T15:59:16.747Z,27.28
2023-05-06T16:03:17.038Z,27.47
2023-05-06T16:07:17.476Z,28.64
2023-05-06T16:11:17.967Z,28.61
2023-05-06T16:15:22.702Z,27.51
2023-05-06T16:19:23.273Z,25.95
2023-05-06T16:23:24.253Z,25.43
2023-05-06T16:27:24.623Z,25.23
2023-05-06T16:31:27.517Z,23.06
2023-05-06T16:35:28.142Z,22.74
2023-05-06T16:39:28.543Z,22.90
2023-05-06T16:43:29.485Z,23.80
2023-05-06T16:47:32.462Z,25.12
2023-05-06T16:51:33.589Z,26.26
2023-05-06T16:55:33.965Z,27.76
2023-05-06T16:59:34.427Z,28.60
2023-05-06T17:03:38.021Z,29.70
2023-05-06T17:07:40.156Z,30.78
2023-05-06T17:11:40.536Z,30.55
2023-05-06T17:15:41.051Z,30.58
2023-05-06T17:19:44.055Z,30.10
2023-05-06T17:23:44.453Z,30.09
2023-05-06T17:27:45.109Z,31.24
2023-05-06T17:31:46.075Z,31.82
2023-05-06T17:35:49.088Z,32.55
2023-05-06T17:39:49.782Z,33.97
2023-05-06T17:43:51.328Z,34.73
2023-05-06T17:47:51.755Z,35.49
2023-05-06T17:51:56.158Z,36.03
2023-05-06T17:55:56.608Z,36.88
2023-05-06T17:59:56.999Z,37.35
2023-05-06T18:03:57.662Z,37.34
2023-05-06T18:08:00.767Z,37.99
2023-05-06T18:12:01.241Z,38.56
2023-05-06T18:16:01.543Z,38.00
2023-05-06T18:20:01.927Z,38.23
2023-05-06T18:24:15.244Z,39.36
2023-05-06T18:28:17.328Z,40.25
2023-05-06T18:32:17.715Z,40.97
2023-05-06T18:36:18.445Z,41.07
2023-05-06T18:40:21.754Z,41.82
2023-05-06T18:44:22.148Z,42.00
2023-05-06T18:48:22.478Z,41.93
2023-05-06T18:52:23.050Z,42.23
2023-05-06T18:56:25.905Z,42.51
2023-05-06T19:00:26.460Z,43.12
2023-05-06T19:04:28.542Z,43.07
2023-05-06T19:08:30.099Z,43.55
2023-05-06T19:12:34.616Z,44.39
2023-05-06T19:16:35.335Z,44.23
2023-05-06T19:20:37.452Z,44.49
2023-05-06T19:24:41.096Z,44.84
2023-05-06T19:28:44.475Z,45.07
2023-05-06T19:32:45.246Z,45.42
2023-05-06T19:36:45.812Z,46.07
2023-05-06T19:40:47.097Z,46.53
2023-05-06T19:44:50.796Z,47.40
2023-05-06T19:48:51.174Z,47.18
2023-05-06T19:52:51.572Z,47.73
2023-05-06T19:56:51.982Z,48.72
2023-05-06T20:00:55.019Z,48.56
2023-05-06T20:04:55.361Z,48.83
2023-05-06T20:08:55.755Z,49.94
2023-05-06T20:12:57.768Z,49.31
2023-05-06T20:17:02.688Z,48.98
2023-05-06T20:21:02.988Z,49.00
2023-05-06T20:25:12.506Z,49.42
2023-05-06T20:29:13.029Z,49.33
2023-05-06T20:33:16.185Z,49.42
2023-05-06T20:37:16.458Z,49.83
2023-05-06T20:41:16.786Z,50.18
2023-05-06T20:45:17.193Z,49.92
2023-05-06T20:49:20.080Z,49.87
2023-05-06T20:53:20.475Z,49.63
2023-05-06T20:57:21.125Z,49.36
2023-05-06T21:01:23.000Z,49.84
2023-05-06T21:05:26.207Z,49.98
2023-05-06T21:09:26.904Z,49.53
2023-05-06T21:13:27.441Z,49.44
2023-05-06T21:17:27.979Z,49.61
2023-05-06T21:21:33.539Z,49.73
2023-05-06T21:25:34.053Z,49.63
2023-05-06T21:29:34.345Z,49.54
2023-05-06T21:33:34.703Z,50.25
2023-05-06T21:37:38.441Z,49.92
2023-05-06T21:41:39.144Z,50.32
2023-05-06T21:45:39.578Z,51.10
2023-05-06T21:49:39.898Z,50.89
2023-05-06T21:53:42.697Z,51.81
2023-05-06T21:57:44.517Z,51.85
2023-05-06T22:01:45.743Z,51.30
2023-05-06T22:05:46.079Z,52.00
2023-05-06T22:09:48.954Z,52.01
2023-05-06T22:13:49.246Z,52.65
2023-05-06T22:17:49.494Z,52.34
2023-05-06T22:21:49.754Z,53.04
2023-05-06T22:25:52.679Z,52.71
2023-05-06T22:29:52.838Z,52.61
2023-05-06T22:33:55.721Z,52.42
2023-05-06T22:37:55.963Z,52.14
2023-05-06T22:41:58.826Z,51.48
2023-05-06T22:45:59.027Z,50.98
2023-05-06T22:49:59.299Z,51.84
2023-05-06T22:53:59.472Z,52.02
2023-05-06T22:58:02.261Z,52.39
2023-05-06T23:02:02.481Z,52.46
2023-05-06T23:06:04.132Z,51.90
2023-05-06T23:10:04.401Z,51.71
2023-05-06T23:14:08.470Z,51.15
2023-05-06T23:18:08.889Z,51.59
2023-05-06T23:22:09.228Z,50.92
2023-05-06T23:26:09.797Z,50.04
2023-05-06T23:30:15.116Z,50.22
2023-05-06T23:34:15.342Z,49.99
2023-05-06T23:38:15.805Z,50.88
2023-05-06T23:42:16.138Z,51.13
2023-05-06T23:46:19.091Z,51.36
2023-05-06T23:50:19.540Z,51.82
2023-05-06T23:54:19.787Z,52.23
2023-05-06T23:58:20.130Z,53.24
